Time;durP1;ratioP1;P1;durP2;ratioP2;P2;SDS_P1;SDS_P2;PMS_P1;PMS_P2;Temp;Humidity;BMP_temperature;BMP_pressure;BME280_temperature;BME280_humidity;BME280_pressure;Samples;Min_cycle;Max_cycle;Signal;HPM_P1;HPM_P2
2022/12/02 00:03:41;;;;;;;8.45;6.00;;;;;;;15.87;96.28;102435.44;20842992;28;19932;-87
2022/12/02 00:13:43;;;;;;;6.88;5.75;;;;;;;15.48;96.19;102377.63;20842500;28;20408;-87
2022/12/02 00:23:45;;;;;;;6.78;5.53;;;;;;;15.78;96.21;102428.75;20846576;28;20045;-87
2022/12/02 00:33:47;;;;;;;7.80;6.07;;;;;;;15.87;96.04;102439.94;20860059;28;20451;-87
2022/12/02 00:54:09;;;;;;;7.93;5.35;;;;;;;15.85;95.71;102425.72;20884049;28;20049;-88
2022/12/02 01:04:10;;;;;;;8.25;5.70;;;;;;;15.85;95.67;102407.81;20877283;28;20127;-88
2022/12/02 01:14:12;;;;;;;6.72;5.35;;;;;;;15.85;95.60;102425.72;20876791;28;20431;-87
2022/12/02 01:24:14;;;;;;;7.22;5.75;;;;;;;15.60;95.29;102385.00;20857415;28;20041;-87
2022/12/02 01:34:15;;;;;;;7.57;5.65;;;;;;;15.83;95.29;102407.03;20862677;28;20133;-87
2022/12/02 01:44:17;;;;;;;7.82;5.90;;;;;;;15.83;95.20;102412.41;20881852;28;20067;-87
2022/12/02 01:54:18;;;;;;;7.85;6.10;;;;;;;15.82;94.92;102399.91;20876986;28;20501;-88
2022/12/02 02:04:20;;;;;;;7.20;5.97;;;;;;;15.81;95.14;102409.78;20853157;28;20111;-88
2022/12/02 02:14:21;;;;;;;7.80;5.60;;;;;;;15.81;94.85;102399.03;20878169;28;20064;-87
2022/12/02 02:24:23;;;;;;;6.13;5.40;;;;;;;15.48;94.86;102327.50;20864995;28;20053;-86
2022/12/02 02:34:26;;;;;;;7.20;5.10;;;;;;;15.80;94.79;102383.88;20862659;28;20045;-87
2022/12/02 02:44:28;;;;;;;7.13;4.95;;;;;;;15.80;94.58;102383.88;20857493;28;20060;-87
2022/12/02 02:54:30;;;;;;;6.57;5.07;;;;;;;15.47;94.33;102341.00;20834379;28;20052;-87
2022/12/02 03:04:32;;;;;;;7.05;5.35;;;;;;;15.38;94.29;102296.75;20857064;28;20052;-88
2022/12/02 03:14:34;;;;;;;5.82;5.15;;;;;;;15.59;94.10;102351.03;20826215;28;20106;-88
2022/12/02 03:24:36;;;;;;;6.25;5.10;;;;;;;15.55;94.10;102338.75;20846057;28;20049;-87
2022/12/02 03:34:38;;;;;;;6.32;4.78;;;;;;;15.78;94.03;102380.41;20865992;28;20052;-88
2022/12/02 03:44:40;;;;;;;5.60;4.57;;;;;;;15.79;93.85;102379.47;20826444;28;20049;-87
2022/12/02 03:54:41;;;;;;;5.78;4.40;;;;;;;15.63;93.50;102339.16;20847717;28;20393;-88
2022/12/02 04:04:43;;;;;;;5.78;4.47;;;;;;;15.61;93.60;102332.19;20873252;28;20085;-88
2022/12/02 04:14:44;;;;;;;6.20;4.68;;;;;;;15.78;93.42;102342.81;20873999;28;20423;-87
2022/12/02 04:24:46;;;;;;;5.30;4.38;;;;;;;15.75;93.35;102329.56;20876330;28;20056;-87
2022/12/02 04:34:47;;;;;;;6.03;4.32;;;;;;;15.67;93.19;102313.03;20875712;28;20056;-87
2022/12/02 04:44:49;;;;;;;6.15;4.40;;;;;;;15.77;93.01;102324.13;20866918;28;20041;-87
2022/12/02 04:54:51;;;;;;;6.13;4.35;;;;;;;15.77;93.10;102321.44;20875347;28;20163;-87
2022/12/02 05:04:53;;;;;;;5.10;4.10;;;;;;;15.77;92.94;102324.13;20857121;28;20041;-87
2022/12/02 05:14:55;;;;;;;5.07;4.20;;;;;;;15.75;92.91;102308.09;20874653;28;20061;-85
2022/12/02 05:24:56;;;;;;;4.50;3.75;;;;;;;15.56;92.59;102275.19;20878486;28;20064;-88
2022/12/02 05:34:58;;;;;;;6.00;4.45;;;;;;;15.40;92.55;102251.91;20889125;28;20122;-87
2022/12/02 05:45:09;;;;;;;4.72;3.88;;;;;;;15.41;92.51;102256.31;20887565;28;20041;-87
2022/12/02 05:55:19;;;;;;;4.90;4.22;;;;;;;15.64;92.32;102299.78;20870514;28;20056;-87
2022/12/02 06:05:23;;;;;;;4.80;3.95;;;;;;;15.75;92.41;102301.88;20869015;28;20053;-88
2022/12/02 06:15:34;;;;;;;4.35;3.60;;;;;;;15.69;92.37;102289.66;20853001;28;20044;-88
2022/12/02 06:25:35;;;;;;;5.55;4.10;;;;;;;15.73;91.91;102304.63;20848382;28;20498;-87
2022/12/02 06:35:37;;;;;;;5.43;4.18;;;;;;;15.72;92.11;102296.69;20883021;28;20045;-88
2022/12/02 06:45:38;;;;;;;4.38;3.67;;;;;;;15.62;91.75;102291.81;20892577;28;20533;-88
2022/12/02 06:55:40;;;;;;;6.38;4.00;;;;;;;15.72;91.52;102297.53;20942271;28;20079;-88
2022/12/02 07:05:47;;;;;;;4.45;3.50;;;;;;;15.72;91.67;102308.25;20848780;28;20136;-89
2022/12/02 07:15:48;;;;;;;5.60;3.88;;;;;;;15.71;91.65;102314.59;20859541;28;20064;-88
2022/12/02 07:25:50;;;;;;;5.40;3.70;;;;;;;15.72;91.32;102320.84;20791456;28;20136;-88
2022/12/02 07:35:52;;;;;;;5.45;3.80;;;;;;;15.71;91.23;102322.66;20875184;28;20069;-88
2022/12/02 07:45:53;;;;;;;4.60;3.38;;;;;;;15.27;90.97;102270.53;20842212;28;20059;-87
2022/12/02 07:55:57;;;;;;;4.53;3.22;;;;;;;15.41;91.33;102283.16;20873594;28;20136;-88
2022/12/02 08:05:58;;;;;;;4.70;3.35;;;;;;;15.44;92.02;102268.69;20841282;28;20081;-89
2022/12/02 08:16:00;;;;;;;4.82;3.50;;;;;;;15.93;92.01;102346.50;20903383;28;20049;-88
2022/12/02 08:26:02;;;;;;;5.22;3.65;;;;;;;15.91;91.91;102331.44;20879838;28;20049;-88
2022/12/02 08:36:03;;;;;;;4.18;3.10;;;;;;;16.05;91.60;102358.34;20859039;28;20068;-93
2022/12/02 08:46:06;;;;;;;4.07;2.95;;;;;;;16.07;90.63;102353.75;20831686;28;20404;-87
2022/12/02 08:56:07;;;;;;;6.15;3.55;;;;;;;16.03;90.42;102351.31;20823713;28;20064;-92
2022/12/02 09:06:09;;;;;;;4.93;3.65;;;;;;;16.00;90.24;102344.31;20858254;28;20131;-93
2022/12/02 09:16:10;;;;;;;5.65;4.30;;;;;;;16.01;90.18;102354.13;20846614;28;20061;-92
2022/12/02 09:26:12;;;;;;;6.88;4.32;;;;;;;16.01;89.79;102351.44;20851701;28;20049;-92
2022/12/02 09:36:13;;;;;;;6.68;4.30;;;;;;;15.97;89.49;102357.06;20848259;28;20037;-92
2022/12/02 09:46:15;;;;;;;6.93;4.90;;;;;;;15.93;89.43;102354.53;20889247;28;20045;-96
2022/12/02 09:56:25;;;;;;;7.40;4.63;;;;;;;15.89;89.69;102344.06;20876795;28;20052;-91
2022/12/02 10:06:28;;;;;;;6.53;4.35;;;;;;;15.89;89.86;102362.84;20858357;28;20395;-91
2022/12/02 10:16:29;;;;;;;7.18;4.30;;;;;;;15.83;89.73;102353.31;20854198;28;20474;-95
2022/12/02 10:26:51;;;;;;;7.03;4.20;;;;;;;15.73;89.95;102347.59;20834067;28;20064;-95
2022/12/02 10:36:54;;;;;;;8.57;4.65;;;;;;;15.83;89.93;102358.69;20809034;28;20442;-92
2022/12/02 10:47:19;;;;;;;7.32;4.75;;;;;;;15.83;89.82;102352.44;20823363;28;20053;-86
2022/12/02 10:57:28;;;;;;;6.25;4.45;;;;;;;15.72;89.69;102323.53;20796802;28;20524;-85
2022/12/02 11:07:30;;;;;;;6.72;4.45;;;;;;;15.72;89.49;102315.47;20815016;28;20057;-92
2022/12/02 11:17:44;;;;;;;8.30;5.47;;;;;;;15.80;89.32;102332.84;20786559;28;20052;-87
2022/12/02 11:28:31;;;;;;;7.43;5.10;;;;;;;15.62;89.36;102293.63;20819731;28;20142;-85
2022/12/02 11:38:51;;;;;;;7.28;4.90;;;;;;;15.79;89.38;102323.06;20851937;28;20054;-89
2022/12/02 11:48:55;;;;;;;7.57;4.80;;;;;;;15.62;89.62;102296.31;20927675;28;20056;-86
2022/12/02 11:58:57;;;;;;;7.55;4.57;;;;;;;15.81;89.72;102309.56;20935917;28;20048;-86
2022/12/02 12:09:09;;;;;;;6.68;4.78;;;;;;;15.80;89.67;102306.00;20891928;28;20412;-86
2022/12/02 12:19:10;;;;;;;9.02;5.00;;;;;;;15.79;89.48;102290.84;20882948;28;20064;-85
2022/12/02 12:29:12;;;;;;;7.38;4.93;;;;;;;15.80;89.83;102287.19;20890426;28;20056;-86
2022/12/02 12:39:14;;;;;;;6.60;4.72;;;;;;;15.79;89.45;102281.94;20895436;28;20062;-85
2022/12/02 12:49:15;;;;;;;6.78;4.90;;;;;;;15.79;89.38;102293.53;20898807;28;20052;-86
2022/12/02 12:59:17;;;;;;;6.40;4.88;;;;;;;15.62;89.11;102264.97;20895537;28;20057;-86
2022/12/02 13:09:19;;;;;;;7.38;4.70;;;;;;;15.77;89.08;102292.75;20883783;28;20061;-85
2022/12/02 13:19:21;;;;;;;6.22;4.30;;;;;;;15.78;89.03;102290.94;20885758;28;20060;-85
2022/12/02 13:29:23;;;;;;;7.20;4.78;;;;;;;15.78;89.06;102297.16;20878501;28;20846;-86
2022/12/02 13:39:24;;;;;;;5.97;4.50;;;;;;;15.78;89.04;102297.16;20894816;28;20408;-85
2022/12/02 13:49:26;;;;;;;6.32;4.47;;;;;;;15.70;89.05;102282.47;20901656;28;20056;-85
2022/12/02 13:59:27;;;;;;;6.75;4.68;;;;;;;15.77;88.73;102306.19;20876706;28;20057;-84
2022/12/02 14:09:36;;;;;;;6.68;4.28;;;;;;;15.66;88.57;102288.00;20880214;28;20064;-85
2022/12/02 14:19:38;;;;;;;7.05;5.03;;;;;;;15.33;88.44;102239.78;20859110;28;20413;-86
2022/12/02 14:29:39;;;;;;;7.20;5.15;;;;;;;15.76;88.40;102296.38;20882506;28;20567;-86
2022/12/02 14:39:41;;;;;;;6.45;4.63;;;;;;;15.76;88.48;102307.13;20881731;28;20056;-88
2022/12/02 14:49:44;;;;;;;6.38;4.85;;;;;;;15.77;88.58;102311.56;20890151;28;20044;-89
2022/12/02 14:59:46;;;;;;;6.05;4.47;;;;;;;15.76;88.32;102315.19;20890993;28;20048;-87
2022/12/02 15:09:48;;;;;;;7.03;4.95;;;;;;;15.77;88.16;102310.69;20888764;28;20056;-86
2022/12/02 15:19:50;;;;;;;5.68;4.68;;;;;;;15.76;88.24;102325.94;20889338;28;20551;-87
2022/12/02 15:29:51;;;;;;;6.25;4.82;;;;;;;15.76;88.21;102323.25;20884074;28;20049;-86
2022/12/02 15:39:53;;;;;;;6.65;4.78;;;;;;;15.76;88.02;102320.56;20887922;28;20056;-86
2022/12/02 15:49:55;;;;;;;7.03;5.28;;;;;;;15.75;87.98;102328.72;20880772;28;20066;-86
2022/12/02 15:59:56;;;;;;;6.97;4.82;;;;;;;15.75;88.05;102317.97;20894831;28;20076;-85
2022/12/02 16:09:58;;;;;;;5.88;4.65;;;;;;;15.61;87.92;102322.28;20876696;28;20067;-86
2022/12/02 16:19:59;;;;;;;7.03;5.00;;;;;;;15.74;87.78;102327.84;20897869;28;20053;-87
2022/12/02 16:30:01;;;;;;;6.97;5.15;;;;;;;15.74;87.80;102333.22;20891640;28;20170;-86
2022/12/02 16:40:04;;;;;;;5.85;4.63;;;;;;;15.74;87.65;102341.25;20892750;28;20091;-87
2022/12/02 16:50:06;;;;;;;6.07;4.68;;;;;;;15.71;87.86;102338.75;20856623;28;20125;-88
2022/12/02 17:00:09;;;;;;;7.13;4.90;;;;;;;15.74;87.16;102349.31;20907236;28;20153;-89
2022/12/02 17:10:11;;;;;;;7.45;4.72;;;;;;;15.73;87.11;102355.63;20895560;28;20063;-85
2022/12/02 17:20:13;;;;;;;6.25;4.95;;;;;;;15.64;87.04;102340.06;20902437;28;20055;-86
2022/12/02 17:30:15;;;;;;;6.72;5.32;;;;;;;15.73;86.85;102350.28;20899824;28;20056;-87
2022/12/02 17:40:16;;;;;;;7.82;5.25;;;;;;;15.73;86.87;102361.00;20949467;28;20041;-87
2022/12/02 17:50:18;;;;;;;6.53;5.40;;;;;;;15.73;86.72;102366.38;20913238;28;20062;-87
2022/12/02 18:00:19;;;;;;;6.35;5.00;;;;;;;15.73;86.44;102378.97;20938963;28;21684;-91
2022/12/02 18:10:21;;;;;;;6.85;5.25;;;;;;;15.71;86.74;102376.34;20893330;28;20049;-86
2022/12/02 18:20:22;;;;;;;6.55;4.93;;;;;;;15.71;86.79;102376.34;20886029;28;20053;-87
2022/12/02 18:30:24;;;;;;;7.22;5.53;;;;;;;15.29;86.79;102299.94;20920123;28;20064;-85
2022/12/02 18:40:25;;;;;;;6.93;5.32;;;;;;;15.70;86.98;102379.97;20936951;28;20525;-87
2022/12/02 18:50:27;;;;;;;7.28;5.72;;;;;;;15.68;87.05;102375.63;20909169;28;20170;-88
2022/12/02 19:00:28;;;;;;;6.00;4.88;;;;;;;15.58;86.98;102354.69;20884647;28;20122;-85
2022/12/02 19:10:30;;;;;;;5.80;4.85;;;;;;;15.70;86.97;102377.28;20891921;28;20052;-87
2022/12/02 19:20:31;;;;;;;5.88;4.65;;;;;;;15.69;87.01;102372.88;20886773;28;21019;-87
2022/12/02 19:30:33;;;;;;;6.50;4.82;;;;;;;15.70;86.96;102363.03;20902144;28;20056;-96
2022/12/02 19:40:35;;;;;;;7.63;5.32;;;;;;;15.58;86.82;102340.41;20948595;28;20150;-93
2022/12/02 19:50:45;;;;;;;6.20;4.85;;;;;;;15.68;87.08;102351.47;20987097;28;20044;-96
2022/12/02 20:00:46;;;;;;;6.28;4.60;;;;;;;15.11;86.66;102248.16;20963338;22;20046;-89
2022/12/02 20:10:48;;;;;;;7.78;5.53;;;;;;;15.70;87.06;102352.28;22155600;22;20076;-92
2022/12/02 20:20:50;;;;;;;7.95;5.30;;;;;;;15.33;86.51;102290.75;20902726;28;20048;-87
2022/12/02 20:30:51;;;;;;;6.32;4.63;;;;;;;15.27;86.56;102286.63;20924317;28;20049;-87
2022/12/02 20:40:53;;;;;;;6.85;4.80;;;;;;;15.70;86.57;102346.91;20930133;28;20135;-85
2022/12/02 20:50:54;;;;;;;5.68;4.60;;;;;;;15.46;86.37;102307.06;20929223;28;20100;-86
2022/12/02 21:00:56;;;;;;;6.20;5.03;;;;;;;15.68;86.47;102341.63;20939753;28;20093;-87
2022/12/02 21:10:57;;;;;;;7.43;5.25;;;;;;;15.28;86.59;102271.38;20921304;28;20432;-87
2022/12/02 21:20:59;;;;;;;6.22;4.88;;;;;;;15.67;86.66;102337.19;20940222;28;20048;-87
2022/12/02 21:31:00;;;;;;;5.55;4.30;;;;;;;15.68;86.62;102332.69;20931146;28;20049;-86
2022/12/02 21:41:02;;;;;;;6.63;5.28;;;;;;;15.65;86.64;102318.47;20930333;28;20056;-86
2022/12/02 21:51:04;;;;;;;6.32;4.82;;;;;;;15.66;86.50;102314.84;20917144;28;20052;-87
2022/12/02 22:11:25;;;;;;;5.78;4.80;;;;;;;15.54;86.23;102285.16;20939024;28;20049;-86
2022/12/02 22:21:28;;;;;;;5.10;4.07;;;;;;;15.63;86.20;102295.38;20912618;28;20055;-86
2022/12/02 22:31:29;;;;;;;5.18;4.22;;;;;;;15.63;86.26;102292.69;20910544;28;20044;-87
2022/12/02 22:41:31;;;;;;;5.88;4.25;;;;;;;15.54;86.13;102267.22;20942479;28;20127;-87
2022/12/02 22:51:32;;;;;;;5.03;4.28;;;;;;;15.63;86.36;102281.94;20922647;28;20170;-87
2022/12/02 23:01:36;;;;;;;4.78;3.88;;;;;;;15.63;86.15;102266.69;20914703;28;20048;-87
2022/12/02 23:11:38;;;;;;;6.25;4.60;;;;;;;15.63;86.27;102260.47;20924562;28;20052;-87
2022/12/02 23:21:39;;;;;;;4.97;3.90;;;;;;;15.62;86.13;102248.00;20920963;28;20060;-87
2022/12/02 23:31:41;;;;;;;4.78;3.88;;;;;;;15.62;86.26;102238.13;20914645;28;20052;-86
2022/12/02 23:41:42;;;;;;;5.18;3.95;;;;;;;15.40;85.86;102194.69;20921437;28;20044;-86
2022/12/02 23:51:43;;;;;;;4.55;3.58;;;;;;;15.62;86.18;102230.06;20916774;28;20076;-86
